<?xml version="1.0" encoding="UTF-8" standalone="no" ?>
<gpx xmlns="http://www.topografix.com/GPX/1/1" xmlns:xsi="http://www.w3.org/2001/XMLSchema-instance" xsi:schemaLocation="http://www.topografix.com/GPX/1/1 http://www.topografix.com/GPX/1/1/gpx.xsd" version="1.1" creator="VisuGPX - https://www.visugpx.com">
  <metadata>
    <name>RPM Gr 3b : LA BRAGUE - LE BRUGUET</name>
    <desc><![CDATA[Départ Valbonne, direction sud - remonter les escaliers - La Gonelle par la piste - descendre en direction du vallon du Bruguet - rejoindre directement la Brague par le chemin - retour à Valbonne en longeant constamment la Brague - Visite de Valbonne et de l'abbaye.]]></desc>
  </metadata>
  <trk>
    <name><![CDATA[Randonnée du 27/01/2019 à 16:30]]></name>
    <trkseg>
      <trkpt lat="43.64055" lon="7.00853">
        <ele>186</ele>
        <time>2019-01-27T16:31:40+01:00</time>
      </trkpt>
      <trkpt lat="43.63996" lon="7.00836">
        <ele>181</ele>
        <time>2019-01-27T16:31:45+01:00</time>
      </trkpt>
      <trkpt lat="43.6389" lon="7.00866">
        <ele>209</ele>
        <time>2019-01-27T16:31:50+01:00</time>
      </trkpt>
      <trkpt lat="43.6371" lon="7.0078">
        <ele>212</ele>
        <time>2019-01-27T16:31:55+01:00</time>
      </trkpt>
      <trkpt lat="43.63573" lon="7.00715">
        <ele>222</ele>
        <time>2019-01-27T16:32:00+01:00</time>
      </trkpt>
      <trkpt lat="43.63508" lon="7.00853">
        <ele>242</ele>
        <time>2019-01-27T16:32:05+01:00</time>
      </trkpt>
      <trkpt lat="43.63524" lon="7.00887">
        <ele>242</ele>
        <time>2019-01-27T16:32:10+01:00</time>
      </trkpt>
      <trkpt lat="43.63505" lon="7.00887">
        <ele>247</ele>
        <time>2019-01-27T16:32:15+01:00</time>
      </trkpt>
      <trkpt lat="43.63443" lon="7.00999">
        <ele>260</ele>
        <time>2019-01-27T16:32:20+01:00</time>
      </trkpt>
      <trkpt lat="43.63545" lon="7.01342">
        <ele>264</ele>
        <time>2019-01-27T16:32:25+01:00</time>
      </trkpt>
      <trkpt lat="43.63564" lon="7.01561">
        <ele>254</ele>
        <time>2019-01-27T16:32:30+01:00</time>
      </trkpt>
      <trkpt lat="43.63595" lon="7.01634">
        <ele>253</ele>
        <time>2019-01-27T16:32:35+01:00</time>
      </trkpt>
      <trkpt lat="43.63595" lon="7.01694">
        <ele>250</ele>
        <time>2019-01-27T16:32:40+01:00</time>
      </trkpt>
      <trkpt lat="43.63573" lon="7.01771">
        <ele>246</ele>
        <time>2019-01-27T16:32:45+01:00</time>
      </trkpt>
      <trkpt lat="43.63589" lon="7.01908">
        <ele>244</ele>
        <time>2019-01-27T16:32:50+01:00</time>
      </trkpt>
      <trkpt lat="43.63576" lon="7.01977">
        <ele>244</ele>
        <time>2019-01-27T16:32:55+01:00</time>
      </trkpt>
      <trkpt lat="43.63604" lon="7.02016">
        <ele>244</ele>
        <time>2019-01-27T16:33:00+01:00</time>
      </trkpt>
      <trkpt lat="43.63604" lon="7.02067">
        <ele>243</ele>
        <time>2019-01-27T16:33:05+01:00</time>
      </trkpt>
      <trkpt lat="43.63632" lon="7.02106">
        <ele>240</ele>
        <time>2019-01-27T16:33:10+01:00</time>
      </trkpt>
      <trkpt lat="43.63632" lon="7.02162">
        <ele>242</ele>
        <time>2019-01-27T16:33:15+01:00</time>
      </trkpt>
      <trkpt lat="43.63474" lon="7.02205">
        <ele>240</ele>
        <time>2019-01-27T16:33:20+01:00</time>
      </trkpt>
      <trkpt lat="43.63415" lon="7.02226">
        <ele>236</ele>
        <time>2019-01-27T16:33:25+01:00</time>
      </trkpt>
      <trkpt lat="43.63356" lon="7.02389">
        <ele>226</ele>
        <time>2019-01-27T16:33:30+01:00</time>
      </trkpt>
      <trkpt lat="43.63384" lon="7.02428">
        <ele>223</ele>
        <time>2019-01-27T16:33:35+01:00</time>
      </trkpt>
      <trkpt lat="43.63424" lon="7.02441">
        <ele>220</ele>
        <time>2019-01-27T16:33:40+01:00</time>
      </trkpt>
      <trkpt lat="43.6343" lon="7.02466">
        <ele>217</ele>
        <time>2019-01-27T16:33:45+01:00</time>
      </trkpt>
      <trkpt lat="43.63421" lon="7.02518">
        <ele>217</ele>
        <time>2019-01-27T16:33:50+01:00</time>
      </trkpt>
      <trkpt lat="43.63433" lon="7.02612">
        <ele>214</ele>
        <time>2019-01-27T16:33:55+01:00</time>
      </trkpt>
      <trkpt lat="43.63433" lon="7.02672">
        <ele>212</ele>
        <time>2019-01-27T16:34:00+01:00</time>
      </trkpt>
      <trkpt lat="43.63328" lon="7.02681">
        <ele>204</ele>
        <time>2019-01-27T16:34:05+01:00</time>
      </trkpt>
      <trkpt lat="43.63266" lon="7.02681">
        <ele>198</ele>
        <time>2019-01-27T16:34:10+01:00</time>
      </trkpt>
      <trkpt lat="43.63216" lon="7.02664">
        <ele>192</ele>
        <time>2019-01-27T16:34:15+01:00</time>
      </trkpt>
      <trkpt lat="43.6316" lon="7.02672">
        <ele>185</ele>
        <time>2019-01-27T16:34:20+01:00</time>
      </trkpt>
      <trkpt lat="43.63114" lon="7.0272">
        <ele>179</ele>
        <time>2019-01-27T16:34:25+01:00</time>
      </trkpt>
      <trkpt lat="43.63061" lon="7.02741">
        <ele>164</ele>
        <time>2019-01-27T16:34:30+01:00</time>
      </trkpt>
      <trkpt lat="43.6302" lon="7.02797">
        <ele>161</ele>
        <time>2019-01-27T16:34:35+01:00</time>
      </trkpt>
      <trkpt lat="43.62958" lon="7.02964">
        <ele>154</ele>
        <time>2019-01-27T16:34:40+01:00</time>
      </trkpt>
      <trkpt lat="43.62949" lon="7.03016">
        <ele>153</ele>
        <time>2019-01-27T16:34:45+01:00</time>
      </trkpt>
      <trkpt lat="43.62961" lon="7.03089">
        <ele>151</ele>
        <time>2019-01-27T16:34:50+01:00</time>
      </trkpt>
      <trkpt lat="43.6298" lon="7.03127">
        <ele>151</ele>
        <time>2019-01-27T16:34:55+01:00</time>
      </trkpt>
      <trkpt lat="43.62974" lon="7.03144">
        <ele>150</ele>
        <time>2019-01-27T16:35:00+01:00</time>
      </trkpt>
      <trkpt lat="43.63039" lon="7.03299">
        <ele>151</ele>
        <time>2019-01-27T16:35:05+01:00</time>
      </trkpt>
      <trkpt lat="43.63086" lon="7.03531">
        <ele>146</ele>
        <time>2019-01-27T16:35:10+01:00</time>
      </trkpt>
      <trkpt lat="43.63173" lon="7.03681">
        <ele>141</ele>
        <time>2019-01-27T16:35:15+01:00</time>
      </trkpt>
      <trkpt lat="43.63191" lon="7.03698">
        <ele>136</ele>
        <time>2019-01-27T16:35:20+01:00</time>
      </trkpt>
      <trkpt lat="43.63191" lon="7.0378">
        <ele>125</ele>
        <time>2019-01-27T16:35:25+01:00</time>
      </trkpt>
      <trkpt lat="43.63244" lon="7.03878">
        <ele>119</ele>
        <time>2019-01-27T16:35:30+01:00</time>
      </trkpt>
      <trkpt lat="43.63312" lon="7.03822">
        <ele>122</ele>
        <time>2019-01-27T16:35:35+01:00</time>
      </trkpt>
      <trkpt lat="43.63402" lon="7.0378">
        <ele>130</ele>
        <time>2019-01-27T16:35:40+01:00</time>
      </trkpt>
      <trkpt lat="43.63461" lon="7.03814">
        <ele>127</ele>
        <time>2019-01-27T16:35:45+01:00</time>
      </trkpt>
      <trkpt lat="43.63536" lon="7.03758">
        <ele>134</ele>
        <time>2019-01-27T16:35:50+01:00</time>
      </trkpt>
      <trkpt lat="43.63511" lon="7.03668">
        <ele>141</ele>
        <time>2019-01-27T16:35:55+01:00</time>
      </trkpt>
      <trkpt lat="43.63511" lon="7.03621">
        <ele>148</ele>
        <time>2019-01-27T16:36:00+01:00</time>
      </trkpt>
      <trkpt lat="43.63567" lon="7.03569">
        <ele>145</ele>
        <time>2019-01-27T16:36:05+01:00</time>
      </trkpt>
      <trkpt lat="43.63573" lon="7.03449">
        <ele>155</ele>
        <time>2019-01-27T16:36:10+01:00</time>
      </trkpt>
      <trkpt lat="43.63564" lon="7.03522">
        <ele>151</ele>
        <time>2019-01-27T16:36:15+01:00</time>
      </trkpt>
      <trkpt lat="43.63465" lon="7.03621">
        <ele>162</ele>
        <time>2019-01-27T16:36:20+01:00</time>
      </trkpt>
      <trkpt lat="43.63396" lon="7.03638">
        <ele>170</ele>
        <time>2019-01-27T16:36:25+01:00</time>
      </trkpt>
      <trkpt lat="43.63306" lon="7.03582">
        <ele>181</ele>
        <time>2019-01-27T16:36:30+01:00</time>
      </trkpt>
      <trkpt lat="43.63275" lon="7.03522">
        <ele>186</ele>
        <time>2019-01-27T16:36:35+01:00</time>
      </trkpt>
      <trkpt lat="43.63269" lon="7.03449">
        <ele>194</ele>
        <time>2019-01-27T16:36:40+01:00</time>
      </trkpt>
      <trkpt lat="43.63232" lon="7.03419">
        <ele>199</ele>
        <time>2019-01-27T16:36:45+01:00</time>
      </trkpt>
      <trkpt lat="43.63197" lon="7.03389">
        <ele>198</ele>
        <time>2019-01-27T16:36:50+01:00</time>
      </trkpt>
      <trkpt lat="43.63241" lon="7.03398">
        <ele>202</ele>
        <time>2019-01-27T16:36:55+01:00</time>
      </trkpt>
      <trkpt lat="43.6335" lon="7.03363">
        <ele>203</ele>
        <time>2019-01-27T16:37:00+01:00</time>
      </trkpt>
      <trkpt lat="43.63492" lon="7.03226">
        <ele>201</ele>
        <time>2019-01-27T16:37:05+01:00</time>
      </trkpt>
      <trkpt lat="43.63514" lon="7.03106">
        <ele>198</ele>
        <time>2019-01-27T16:37:10+01:00</time>
      </trkpt>
      <trkpt lat="43.6352" lon="7.02887">
        <ele>193</ele>
        <time>2019-01-27T16:37:15+01:00</time>
      </trkpt>
      <trkpt lat="43.63492" lon="7.02805">
        <ele>192</ele>
        <time>2019-01-27T16:37:20+01:00</time>
      </trkpt>
      <trkpt lat="43.63586" lon="7.02702">
        <ele>186</ele>
        <time>2019-01-27T16:37:25+01:00</time>
      </trkpt>
      <trkpt lat="43.63617" lon="7.02612">
        <ele>187</ele>
        <time>2019-01-27T16:37:30+01:00</time>
      </trkpt>
      <trkpt lat="43.63747" lon="7.02483">
        <ele>204</ele>
        <time>2019-01-27T16:37:35+01:00</time>
      </trkpt>
      <trkpt lat="43.63806" lon="7.02372">
        <ele>203</ele>
        <time>2019-01-27T16:37:40+01:00</time>
      </trkpt>
      <trkpt lat="43.63822" lon="7.0223">
        <ele>207</ele>
        <time>2019-01-27T16:37:45+01:00</time>
      </trkpt>
      <trkpt lat="43.63806" lon="7.02149">
        <ele>204</ele>
        <time>2019-01-27T16:37:50+01:00</time>
      </trkpt>
      <trkpt lat="43.63834" lon="7.01917">
        <ele>194</ele>
        <time>2019-01-27T16:37:55+01:00</time>
      </trkpt>
      <trkpt lat="43.63837" lon="7.01831">
        <ele>186</ele>
        <time>2019-01-27T16:38:00+01:00</time>
      </trkpt>
      <trkpt lat="43.6385" lon="7.01861">
        <ele>183</ele>
        <time>2019-01-27T16:38:05+01:00</time>
      </trkpt>
      <trkpt lat="43.63887" lon="7.0175">
        <ele>170</ele>
        <time>2019-01-27T16:38:10+01:00</time>
      </trkpt>
      <trkpt lat="43.63887" lon="7.01672">
        <ele>173</ele>
        <time>2019-01-27T16:38:15+01:00</time>
      </trkpt>
      <trkpt lat="43.63847" lon="7.01569">
        <ele>178</ele>
        <time>2019-01-27T16:38:20+01:00</time>
      </trkpt>
      <trkpt lat="43.63843" lon="7.01462">
        <ele>184</ele>
        <time>2019-01-27T16:38:25+01:00</time>
      </trkpt>
      <trkpt lat="43.63871" lon="7.01303">
        <ele>197</ele>
        <time>2019-01-27T16:38:30+01:00</time>
      </trkpt>
      <trkpt lat="43.63881" lon="7.01183">
        <ele>191</ele>
        <time>2019-01-27T16:38:35+01:00</time>
      </trkpt>
      <trkpt lat="43.64055" lon="7.00969">
        <ele>188</ele>
        <time>2019-01-27T16:38:40+01:00</time>
      </trkpt>
      <trkpt lat="43.64061" lon="7.00848">
        <ele>186</ele>
        <time>2019-01-27T16:38:45+01:00</time>
      </trkpt>
    </trkseg>
  </trk>
</gpx>